• Join FlightAware (Why Join?)
  • Login
  • US Flag 
08:42PM EST


 

Airport Tracker/Info


-or-


 

Live Flight TrackerFlight Track Log ✈ JIA2277 ✈ 14-Jun-2013 ✈ KEWN - KCLT

Flight Track Log - Related Links

Times and Time Zones

All times are in EDT time to prevent confusion due to time zone crossing. See the JIA2277 flight status page for this flight to view local times or setup timezone preferences in your user account.

Time Position Orientation Groundspeed Altitude Reporting Facility
EDT Latitude Longitude Course Direction KTS MPH feet Rate Location/Type
11:16AM 35.1353 -77.0372 231° Southwest 211 243 4,000  Level Washington Center
11:17AM 35.0867 -77.0872 220° Southwest 264 304 6,600 2,460 Climbing Washington Center
11:18AM 34.8265 -77.3151 223° Southwest  Level FlightAware Approximate
11:18AM 35.0153 -77.1289 206° Southwest 296 341 9,000  Level Washington Center
11:19AM 34.7647 -77.3855 223° Southwest  Level FlightAware Approximate
11:19AM 34.9497 -77.1911 218° Southwest 301 346 10,000  Level Washington Center
11:20AM 34.7031 -77.4560 223° Southwest  Level FlightAware Approximate
11:20AM 34.8842 -77.2656 223° Southwest 313 360 12,700  Level Washington Center
11:21AM 34.6413 -77.5297 231° Southwest  Level FlightAware Approximate
11:21AM 34.8225 -77.3353 223° Southwest 313 360 15,000  Level Washington Center
11:22AM 34.7631 -77.4047 224° Southwest 308 354 16,900 1,980 Climbing Washington Center
11:23AM 34.6994 -77.4767 223° Southwest 303 349 19,100 1,560 Climbing Washington Center
11:24AM 34.6400 -77.5458 224° Southwest 303 349 20,000 420 Climbing Washington Center
11:25AM 34.5739 -77.6200 223° Southwest 308 354 20,000  Level Washington Center
11:26AM 34.5514 -77.7178 254° West 298 343 20,000  Level Washington Center
11:27AM 34.5350 -77.8156 259° West 303 349 20,000  Level Washington Center
11:28AM 34.5186 -77.9186 259° West 303 349 20,000  Level Washington Center
11:29AM 34.5039 -78.0214 260° West 308 354 20,000  Level Washington Center
11:30AM 34.4872 -78.1217 259° West 308 354 20,000  Level Washington Center
11:32AM 34.4511 -78.3403 259° West 304 350 20,000  Level Jacksonville Center
11:33AM 34.4358 -78.4417 260° West 304 350 20,000  Level Jacksonville Center
11:34AM 34.4167 -78.5458 257° West 316 364 20,000  Level Jacksonville Center
11:35AM 34.4014 -78.6472 260° West 316 364 20,000  Level Jacksonville Center
11:36AM 34.3856 -78.7386 258° West 316 364 20,000  Level Jacksonville Center
11:37AM 34.4014 -78.8411 281° West 311 358 20,000  Level Jacksonville Center
11:38AM 34.4214 -78.9408 284° West 306 352 20,000  Level Jacksonville Center
11:39AM 34.4431 -79.0356 286° West 306 352 20,000  Level Jacksonville Center
11:40AM 34.4628 -79.1353 284° West 306 352 20,000  Level Jacksonville Center
11:41AM 34.4822 -79.2353 283° West 306 352 20,000  Level Jacksonville Center
11:42AM 34.5017 -79.3328 284° West 306 352 20,000  Level Jacksonville Center
11:43AM 34.5211 -79.4300 284° West 306 352 20,000  Level Jacksonville Center
11:44AM 34.5406 -79.5278 284° West 301 346 20,000 -360 Level Jacksonville Center
11:45AM 34.5617 -79.6225 285° West 301 346 19,300 -900 Descending Jacksonville Center
11:46AM 34.5814 -79.7328 282° West 306 352 18,200 -1,080 Descending Jacksonville Center
11:47AM 34.6000 -79.8206 284° West 320 368 17,200 -1,260 Descending Jacksonville Center
11:48AM 34.6217 -79.9331 283° West 310 357 15,700 -1,500 Descending Jacksonville Center
11:50AM 34.6533 -80.0972 283° West 291 335 13,400 -1,440 Descending Atlanta Center
11:51AM 34.6733 -80.1972 284° West 302 348 12,100 -1,200 Descending Atlanta Center
11:52AM 34.6933 -80.3025 283° West 298 343 11,000 -600 Descending Atlanta Center
11:53AM 34.7203 -80.3694 296° West 264 304 11,000 -180 Level Atlanta Center
11:54AM 34.7581 -80.4461 301° West 239 275 10,700 -600 Descending Atlanta Center
11:55AM 34.7692 -80.5367 279° West 266 306 9,800 -840 Descending Atlanta Center
11:56AM 34.7756 -80.6200 275° West 262 302 9,100 -840 Descending Atlanta Center
11:57AM 34.7556 -80.7294 257° West 282 325 8,100 -840 Descending Atlanta Center
11:58AM 34.7394 -80.8236 258° West 287 330 7,300 -840 Descending Atlanta Center
11:59AM 34.7456 -80.9067 275° West 230 265 6,400 -660 Descending Atlanta Center
12:00PM 34.7983 -80.9325 338° Northwest 194 223 6,000 -240 Descending Atlanta Center
12:01PM 34.8486 -80.9383 355° North 169 194 6,000  Level Atlanta Center
12:02PM 34.8969 -80.9442 354° North 173 199 6,000 -180 Level Atlanta Center
12:03PM 34.9469 -80.9472 357° North 167 192 5,700 -600 Descending Atlanta Center
12:04PM 34.9886 -80.9483 359° North 154 177 4,800 -900 Descending Atlanta Center
12:05PM 35.0286 -80.9544 353° North 154 177 4,000 -900 Descending Atlanta Center